Time;durP1;ratioP1;P1;durP2;ratioP2;P2;SDS_P1;SDS_P2;PMS_P1;PMS_P2;Temp;Humidity;BMP_temperature;BMP_pressure;BME280_temperature;BME280_humidity;BME280_pressure;Samples;Min_cycle;Max_cycle;Signal;HPM_P1;HPM_P2
2022/11/29 00:00:38;;;;;;;105.22;27.10;;;;;;;;;;4994874;28;20237;-65
2022/11/29 00:03:03;;;;;;;50.72;22.88;;;;;;;;;;4991972;28;20329;-65
2022/11/29 00:05:28;;;;;;;52.28;22.85;;;;;;;;;;4995332;28;20232;-66
2022/11/29 00:07:54;;;;;;;52.58;23.60;;;;;;;;;;5012967;28;20254;-66
2022/11/29 00:10:19;;;;;;;55.22;23.17;;;;;;;;;;5011434;28;21298;-65
2022/11/29 00:12:46;;;;;;;50.83;23.58;;;;;;;;;;5012608;28;20295;-65
2022/11/29 00:15:11;;;;;;;54.05;23.65;;;;;;;;;;5007812;28;20197;-65
2022/11/29 00:17:36;;;;;;;45.15;21.38;;;;;;;;;;4992465;28;20224;-65
2022/11/29 00:20:02;;;;;;;49.80;23.20;;;;;;;;;;4992625;28;20712;-65
2022/11/29 00:22:28;;;;;;;55.67;23.58;;;;;;;;;;4993056;28;20217;-65
2022/11/29 00:24:53;;;;;;;71.35;25.48;;;;;;;;;;4992172;28;20230;-65
2022/11/29 00:27:18;;;;;;;49.47;22.30;;;;;;;;;;4992648;28;20219;-65
2022/11/29 00:29:43;;;;;;;56.25;23.70;;;;;;;;;;4992562;28;20224;-65
2022/11/29 00:32:09;;;;;;;65.78;25.38;;;;;;;;;;4991698;28;20293;-65
2022/11/29 00:34:34;;;;;;;53.85;23.48;;;;;;;;;;4993123;28;20575;-65
2022/11/29 00:36:59;;;;;;;54.30;23.30;;;;;;;;;;4992937;28;20213;-66
2022/11/29 00:39:25;;;;;;;68.07;24.55;;;;;;;;;;4991832;28;20213;-65
2022/11/29 00:41:50;;;;;;;63.20;25.00;;;;;;;;;;4992660;28;20217;-65
2022/11/29 00:44:15;;;;;;;60.70;24.98;;;;;;;;;;4992331;28;20229;-65
2022/11/29 00:46:40;;;;;;;65.50;26.45;;;;;;;;;;5006713;28;20278;-65
2022/11/29 00:49:06;;;;;;;66.32;24.20;;;;;;;;;;5011913;28;20208;-65
2022/11/29 00:51:31;;;;;;;71.68;25.67;;;;;;;;;;5012243;28;20216;-65
2022/11/29 00:53:56;;;;;;;60.35;24.90;;;;;;;;;;4988860;28;20598;-65
2022/11/29 00:56:22;;;;;;;61.05;25.25;;;;;;;;;;4976940;28;20213;-65
2022/11/29 00:58:48;;;;;;;64.50;25.67;;;;;;;;;;4977015;28;20569;-66
2022/11/29 01:01:13;;;;;;;89.80;26.73;;;;;;;;;;4975041;28;20234;-65
2022/11/29 01:03:38;;;;;;;63.35;24.92;;;;;;;;;;4976893;28;20228;-65
2022/11/29 01:06:05;;;;;;;69.93;25.50;;;;;;;;;;4976474;28;20655;-65
2022/11/29 01:08:30;;;;;;;68.47;25.00;;;;;;;;;;4976234;28;20214;-65
2022/11/29 01:11:02;;;;;;;61.28;25.15;;;;;;;;;;4976613;28;20209;-66
2022/11/29 01:13:27;;;;;;;63.13;24.45;;;;;;;;;;4987164;28;20276;-65
2022/11/29 01:15:55;;;;;;;60.30;25.45;;;;;;;;;;5005299;28;20216;-65
2022/11/29 01:18:20;;;;;;;68.00;25.40;;;;;;;;;;5015206;28;20216;-65
2022/11/29 01:20:45;;;;;;;67.57;25.52;;;;;;;;;;5014859;28;20351;-65
2022/11/29 01:23:10;;;;;;;65.85;26.48;;;;;;;;;;5015107;28;20238;-65
2022/11/29 01:25:36;;;;;;;78.90;26.90;;;;;;;;;;5015440;28;20220;-65
2022/11/29 01:28:01;;;;;;;62.85;25.10;;;;;;;;;;5002339;28;20599;-65
2022/11/29 01:30:26;;;;;;;83.20;26.38;;;;;;;;;;4995747;28;20205;-65
2022/11/29 01:32:51;;;;;;;66.50;25.98;;;;;;;;;;4995656;28;20639;-65
2022/11/29 01:35:17;;;;;;;76.35;26.67;;;;;;;;;;4994686;28;20209;-65
2022/11/29 01:37:42;;;;;;;77.05;26.10;;;;;;;;;;4995730;28;20217;-65
2022/11/29 01:40:07;;;;;;;66.40;24.67;;;;;;;;;;4995172;28;20217;-65
2022/11/29 01:42:33;;;;;;;61.88;24.67;;;;;;;;;;4994674;28;20205;-65
2022/11/29 01:45:06;;;;;;;70.10;25.25;;;;;;;;;;4996371;28;20229;-65
2022/11/29 01:47:32;;;;;;;67.72;24.95;;;;;;;;;;4994839;28;20209;-65
2022/11/29 01:49:57;;;;;;;61.42;23.70;;;;;;;;;;4993487;28;20209;-65
2022/11/29 01:52:23;;;;;;;64.32;23.98;;;;;;;;;;4992738;28;20231;-65
2022/11/29 01:54:49;;;;;;;69.68;24.55;;;;;;;;;;4980678;28;20285;-65
2022/11/29 01:57:15;;;;;;;86.07;25.63;;;;;;;;;;4974616;28;20226;-65
2022/11/29 01:59:41;;;;;;;66.32;24.00;;;;;;;;;;4985029;28;20232;-65
2022/11/29 02:02:09;;;;;;;68.70;24.52;;;;;;;;;;5002158;28;20213;-65
2022/11/29 02:04:34;;;;;;;65.35;24.55;;;;;;;;;;5004301;28;20219;-65
2022/11/29 02:06:59;;;;;;;60.53;24.20;;;;;;;;;;5014745;28;20618;-65
2022/11/29 02:09:25;;;;;;;64.50;23.90;;;;;;;;;;5014195;28;20236;-65
2022/11/29 02:11:58;;;;;;;62.58;22.77;;;;;;;;;;5014014;28;20578;-65
2022/11/29 02:14:33;;;;;;;73.55;24.20;;;;;;;;;;5004658;28;20208;-65
2022/11/29 02:17:00;;;;;;;66.28;23.90;;;;;;;;;;4995209;28;20227;-65
2022/11/29 02:19:32;;;;;;;68.53;24.05;;;;;;;;;;4993329;28;20225;-65
2022/11/29 02:22:01;;;;;;;68.05;24.42;;;;;;;;;;4993644;28;20213;-65
2022/11/29 02:24:27;;;;;;;60.53;22.77;;;;;;;;;;4993561;28;20213;-66
2022/11/29 02:26:52;;;;;;;63.15;24.00;;;;;;;;;;4994802;28;20323;-65
2022/11/29 02:29:23;;;;;;;63.95;23.52;;;;;;;;;;4994189;28;20293;-65
2022/11/29 02:32:07;;;;;;;63.83;24.67;;;;;;;;;;4992608;28;20213;-65
2022/11/29 02:34:34;;;;;;;74.35;24.38;;;;;;;;;;4982742;28;20280;-65
2022/11/29 02:37:05;;;;;;;63.78;23.63;;;;;;;;;;4975285;28;20210;-65
2022/11/29 02:39:36;;;;;;;67.00;25.63;;;;;;;;;;4980014;28;20233;-65
2022/11/29 02:42:01;;;;;;;65.13;25.70;;;;;;;;;;4973560;28;20230;-65
2022/11/29 02:44:29;;;;;;;62.03;24.10;;;;;;;;;;4974958;28;20260;-65
2022/11/29 02:46:59;;;;;;;68.95;23.95;;;;;;;;;;4990551;28;20217;-66
2022/11/29 02:49:32;;;;;;;65.60;23.67;;;;;;;;;;4992557;28;20205;-65
2022/11/29 02:52:01;;;;;;;64.80;23.83;;;;;;;;;;4992389;28;20221;-65
2022/11/29 02:54:28;;;;;;;63.28;23.90;;;;;;;;;;4983110;28;20219;-65
2022/11/29 02:56:59;;;;;;;68.95;23.77;;;;;;;;;;4973651;28;20287;-65
2022/11/29 02:59:31;;;;;;;71.82;26.17;;;;;;;;;;4973081;28;20292;-65
2022/11/29 03:02:06;;;;;;;69.50;24.35;;;;;;;;;;4974751;28;20580;-65
2022/11/29 03:04:37;;;;;;;74.88;25.92;;;;;;;;;;4984103;28;20583;-65
2022/11/29 03:07:02;;;;;;;74.25;24.70;;;;;;;;;;4983820;28;20260;-65
2022/11/29 03:09:31;;;;;;;69.85;25.45;;;;;;;;;;4993824;28;20263;-65
2022/11/29 03:11:57;;;;;;;78.93;26.17;;;;;;;;;;4984687;28;20232;-65
2022/11/29 03:14:23;;;;;;;73.18;25.52;;;;;;;;;;4992671;28;20641;-66
2022/11/29 03:16:53;;;;;;;69.82;25.52;;;;;;;;;;4995595;28;20262;-65
2022/11/29 03:19:22;;;;;;;68.65;26.23;;;;;;;;;;4991918;28;20587;-65
2022/11/29 03:21:51;;;;;;;73.38;26.90;;;;;;;;;;4993194;28;20217;-66
2022/11/29 03:24:20;;;;;;;70.65;26.08;;;;;;;;;;4991995;28;20216;-65
2022/11/29 03:26:48;;;;;;;84.63;26.90;;;;;;;;;;4992224;28;20700;-65
2022/11/29 03:29:19;;;;;;;147.93;30.45;;;;;;;;;;4992337;28;20231;-65
2022/11/29 03:31:52;;;;;;;119.60;29.83;;;;;;;;;;4993691;28;20224;-65
2022/11/29 03:34:18;;;;;;;132.40;28.88;;;;;;;;;;4990789;28;20213;-65
2022/11/29 03:36:43;;;;;;;83.53;27.80;;;;;;;;;;4993481;28;20820;-65
2022/11/29 03:39:10;;;;;;;69.60;24.55;;;;;;;;;;4993040;28;20225;-65
2022/11/29 03:41:38;;;;;;;70.80;25.80;;;;;;;;;;4991135;28;20205;-65
2022/11/29 03:44:08;;;;;;;70.88;24.88;;;;;;;;;;4992893;28;20215;-65
2022/11/29 03:46:46;;;;;;;72.05;24.20;;;;;;;;;;4979513;28;20234;-65
2022/11/29 03:49:18;;;;;;;65.68;23.25;;;;;;;;;;4971188;28;20228;-65
2022/11/29 03:51:48;;;;;;;69.13;23.25;;;;;;;;;;4973778;28;20217;-65
2022/11/29 03:54:15;;;;;;;121.93;27.65;;;;;;;;;;4974417;28;20206;-65
2022/11/29 03:56:41;;;;;;;127.18;28.20;;;;;;;;;;4965058;28;20308;-65
2022/11/29 03:59:16;;;;;;;104.68;25.42;;;;;;;;;;4964559;28;20309;-65
2022/11/29 04:01:46;;;;;;;87.20;25.15;;;;;;;;;;4964170;28;20264;-66
2022/11/29 04:04:14;;;;;;;80.07;24.77;;;;;;;;;;4975775;28;20218;-65
2022/11/29 04:07:01;;;;;;;102.68;25.83;;;;;;;;;;4982923;28;20440;-65
2022/11/29 04:09:29;;;;;;;77.85;23.85;;;;;;;;;;4982108;28;20300;-65
2022/11/29 04:12:07;;;;;;;113.68;26.08;;;;;;;;;;4973423;28;20221;-65
2022/11/29 04:14:55;;;;;;;67.60;23.85;;;;;;;;;;4963505;28;20214;-65
2022/11/29 04:17:27;;;;;;;67.32;22.45;;;;;;;;;;4980490;28;20213;-65
2022/11/29 04:20:09;;;;;;;128.52;27.00;;;;;;;;;;4987095;28;20220;-66
2022/11/29 04:22:42;;;;;;;69.78;23.85;;;;;;;;;;4989599;28;20217;-65
2022/11/29 04:25:19;;;;;;;80.75;25.13;;;;;;;;;;4980912;28;20221;-65
2022/11/29 04:27:48;;;;;;;73.43;23.13;;;;;;;;;;4982477;28;20231;-65
2022/11/29 04:30:15;;;;;;;63.03;22.65;;;;;;;;;;4975258;28;20705;-65
2022/11/29 04:32:40;;;;;;;76.43;23.48;;;;;;;;;;4976692;28;20217;-65
2022/11/29 04:35:13;;;;;;;63.50;22.30;;;;;;;;;;4978325;28;20212;-65
2022/11/29 04:37:38;;;;;;;69.43;23.05;;;;;;;;;;4980166;28;20330;-65
2022/11/29 04:40:08;;;;;;;67.45;22.73;;;;;;;;;;4986293;28;20642;-65
2022/11/29 04:42:46;;;;;;;92.80;25.40;;;;;;;;;;4985608;28;20272;-65
2022/11/29 04:45:19;;;;;;;58.22;22.13;;;;;;;;;;4981404;28;20220;-65
2022/11/29 04:47:50;;;;;;;61.33;21.55;;;;;;;;;;4984847;28;20217;-65
2022/11/29 04:50:19;;;;;;;67.10;22.85;;;;;;;;;;4984849;28;20683;-65
2022/11/29 04:52:44;;;;;;;62.83;21.90;;;;;;;;;;4979845;28;20210;-65
2022/11/29 04:55:19;;;;;;;63.83;22.30;;;;;;;;;;4959940;28;20265;-65
2022/11/29 04:57:46;;;;;;;65.90;23.73;;;;;;;;;;4987610;28;20216;-65
2022/11/29 05:00:14;;;;;;;58.90;21.20;;;;;;;;;;4983443;28;20599;-65
2022/11/29 05:02:41;;;;;;;59.85;22.20;;;;;;;;;;4986950;28;20688;-65
2022/11/29 05:05:25;;;;;;;55.65;20.88;;;;;;;;;;5010118;28;20590;-65
2022/11/29 05:07:53;;;;;;;60.10;22.20;;;;;;;;;;5015146;28;20231;-65
2022/11/29 05:10:30;;;;;;;57.80;22.10;;;;;;;;;;5014267;28;20213;-65
2022/11/29 05:12:59;;;;;;;60.42;22.10;;;;;;;;;;5013674;28;20648;-65
2022/11/29 05:15:24;;;;;;;59.13;21.90;;;;;;;;;;5009491;28;20205;-66
2022/11/29 05:18:04;;;;;;;64.55;23.33;;;;;;;;;;4996278;28;20267;-65
2022/11/29 05:20:40;;;;;;;66.25;23.70;;;;;;;;;;4993522;28;20308;-65
2022/11/29 05:23:11;;;;;;;63.67;23.50;;;;;;;;;;4993702;28;20221;-65
2022/11/29 05:25:49;;;;;;;85.20;24.15;;;;;;;;;;4965743;28;20244;-66
2022/11/29 05:28:16;;;;;;;71.60;24.35;;;;;;;;;;4979750;28;20244;-66
2022/11/29 05:30:48;;;;;;;86.85;23.08;;;;;;;;;;4985068;28;20263;-65
2022/11/29 05:33:19;;;;;;;58.13;22.75;;;;;;;;;;4980721;28;20209;-65
2022/11/29 05:35:51;;;;;;;57.45;22.73;;;;;;;;;;4984635;28;20225;-65
2022/11/29 05:38:21;;;;;;;67.82;23.25;;;;;;;;;;4985255;28;20241;-65
2022/11/29 05:40:52;;;;;;;67.45;23.85;;;;;;;;;;4983319;28;20217;-65
2022/11/29 05:43:22;;;;;;;65.20;23.58;;;;;;;;;;4980378;28;20213;-65
2022/11/29 05:45:51;;;;;;;59.72;22.60;;;;;;;;;;4970639;28;20333;-66
2022/11/29 05:48:20;;;;;;;53.50;21.63;;;;;;;;;;4974342;28;20217;-65
2022/11/29 05:50:53;;;;;;;59.78;21.20;;;;;;;;;;4980171;28;20221;-65
2022/11/29 05:53:37;;;;;;;59.67;21.90;;;;;;;;;;4980524;28;20244;-66
2022/11/29 05:56:06;;;;;;;57.70;22.25;;;;;;;;;;4982760;28;20221;-65
2022/11/29 05:58:31;;;;;;;55.65;22.42;;;;;;;;;;4985608;28;20221;-65
2022/11/29 06:01:02;;;;;;;80.80;24.38;;;;;;;;;;4985064;28;20244;-66
2022/11/29 06:03:30;;;;;;;62.08;22.00;;;;;;;;;;4988994;28;20213;-65
2022/11/29 06:05:59;;;;;;;70.25;24.15;;;;;;;;;;4980197;28;20225;-66
2022/11/29 06:08:24;;;;;;;63.45;22.17;;;;;;;;;;4975328;28;20801;-66
2022/11/29 06:10:53;;;;;;;56.63;22.65;;;;;;;;;;4976670;28;20217;-66
2022/11/29 06:13:22;;;;;;;90.43;24.70;;;;;;;;;;4980653;28;20296;-65
2022/11/29 06:15:55;;;;;;;75.47;22.48;;;;;;;;;;4976744;28;20218;-66
2022/11/29 06:18:25;;;;;;;58.88;21.48;;;;;;;;;;4984882;28;20668;-65
2022/11/29 06:21:03;;;;;;;57.88;22.60;;;;;;;;;;4985196;28;20209;-66
2022/11/29 06:23:29;;;;;;;59.40;22.42;;;;;;;;;;4998772;28;20703;-65
2022/11/29 06:25:56;;;;;;;57.25;21.23;;;;;;;;;;4993129;28;20236;-66
2022/11/29 06:28:27;;;;;;;57.17;22.17;;;;;;;;;;4981842;28;20756;-66
2022/11/29 06:30:54;;;;;;;56.92;21.38;;;;;;;;;;4975281;28;20244;-66
2022/11/29 06:33:20;;;;;;;61.30;21.75;;;;;;;;;;4971523;28;20214;-65
2022/11/29 06:35:47;;;;;;;59.15;21.88;;;;;;;;;;4977974;28;20308;-66
2022/11/29 06:38:18;;;;;;;63.38;21.65;;;;;;;;;;4981763;28;20221;-66
2022/11/29 06:40:43;;;;;;;56.97;20.75;;;;;;;;;;4984793;28;20280;-66
2022/11/29 06:43:09;;;;;;;61.70;22.30;;;;;;;;;;4984127;28;20217;-65
2022/11/29 06:45:34;;;;;;;102.32;25.63;;;;;;;;;;4977705;28;21108;-66
2022/11/29 06:48:01;;;;;;;57.13;21.85;;;;;;;;;;4966098;28;20221;-66
2022/11/29 06:50:35;;;;;;;64.75;22.35;;;;;;;;;;4990521;28;20270;-66
2022/11/29 06:53:04;;;;;;;63.55;22.55;;;;;;;;;;4968389;28;20375;-65
2022/11/29 06:55:35;;;;;;;61.47;21.95;;;;;;;;;;4974631;28;20217;-66
2022/11/29 06:58:04;;;;;;;68.07;21.88;;;;;;;;;;4977277;28;20218;-65
2022/11/29 07:00:34;;;;;;;70.55;22.40;;;;;;;;;;4990229;28;20233;-64
2022/11/29 07:03:18;;;;;;;68.05;25.88;;;;;;;;;;4972404;28;20422;-63
2022/11/29 07:05:43;;;;;;;61.30;24.80;;;;;;;;;;4978034;28;20436;-65
2022/11/29 07:08:10;;;;;;;58.97;22.67;;;;;;;;;;4985204;28;20296;-64
2022/11/29 07:10:36;;;;;;;65.95;25.58;;;;;;;;;;5001083;28;20949;-65
2022/11/29 07:13:02;;;;;;;63.08;22.25;;;;;;;;;;5002822;28;20206;-65
2022/11/29 07:15:27;;;;;;;60.58;21.88;;;;;;;;;;5002008;28;20686;-65
2022/11/29 07:17:58;;;;;;;59.28;20.83;;;;;;;;;;5003758;28;20346;-65
2022/11/29 07:20:28;;;;;;;80.15;25.48;;;;;;;;;;5001539;28;20662;-65
2022/11/29 07:23:13;;;;;;;66.20;23.92;;;;;;;;;;5003391;28;20216;-65
2022/11/29 07:25:43;;;;;;;77.07;23.17;;;;;;;;;;5002620;28;20236;-65
2022/11/29 07:28:21;;;;;;;61.17;22.27;;;;;;;;;;5000558;28;20687;-65
2022/11/29 07:30:50;;;;;;;65.43;21.02;;;;;;;;;;5002044;28;20216;-65
2022/11/29 07:33:21;;;;;;;73.88;21.90;;;;;;;;;;5001385;28;20210;-65
2022/11/29 07:36:03;;;;;;;59.25;21.42;;;;;;;;;;5001969;28;20256;-65
2022/11/29 07:38:39;;;;;;;70.88;21.02;;;;;;;;;;5001725;28;20204;-65
2022/11/29 07:41:09;;;;;;;61.40;20.38;;;;;;;;;;4999028;28;20251;-65
2022/11/29 07:43:34;;;;;;;58.70;20.23;;;;;;;;;;4998638;28;20275;-65
2022/11/29 07:45:59;;;;;;;64.00;21.70;;;;;;;;;;5004884;28;20221;-66
2022/11/29 07:48:25;;;;;;;62.53;22.03;;;;;;;;;;4994275;28;20433;-64
2022/11/29 07:50:51;;;;;;;65.30;21.33;;;;;;;;;;5000857;28;20213;-66
2022/11/29 07:53:16;;;;;;;64.70;22.10;;;;;;;;;;5003564;28;20259;-66
2022/11/29 07:55:42;;;;;;;58.80;20.83;;;;;;;;;;5001635;28;20205;-66
2022/11/29 07:58:09;;;;;;;56.47;21.23;;;;;;;;;;5000928;28;20606;-65
2022/11/29 08:00:35;;;;;;;61.92;21.33;;;;;;;;;;5003182;28;20233;-66
2022/11/29 08:03:00;;;;;;;62.65;21.27;;;;;;;;;;5003701;28;20201;-64
2022/11/29 08:05:25;;;;;;;54.53;19.55;;;;;;;;;;5004766;28;20646;-66
2022/11/29 08:07:52;;;;;;;58.67;19.10;;;;;;;;;;5000641;28;20272;-65
2022/11/29 08:10:17;;;;;;;56.75;19.98;;;;;;;;;;4997247;28;20707;-66
2022/11/29 08:12:43;;;;;;;55.28;20.45;;;;;;;;;;4993677;28;20252;-66
2022/11/29 08:15:09;;;;;;;65.78;21.50;;;;;;;;;;5005757;28;20211;-66
2022/11/29 08:17:35;;;;;;;68.93;22.60;;;;;;;;;;4992273;28;20567;-65
2022/11/29 08:20:00;;;;;;;60.53;22.92;;;;;;;;;;4992978;28;20217;-67
2022/11/29 08:22:25;;;;;;;60.25;21.50;;;;;;;;;;4992005;28;20751;-67
2022/11/29 08:24:51;;;;;;;69.93;22.58;;;;;;;;;;4997587;28;20213;-67
2022/11/29 08:27:16;;;;;;;60.50;22.48;;;;;;;;;;5002231;28;20291;-66
2022/11/29 08:29:42;;;;;;;64.53;20.98;;;;;;;;;;4999814;28;20567;-66
2022/11/29 08:32:07;;;;;;;62.72;21.50;;;;;;;;;;4991529;28;20676;-67
2022/11/29 08:34:33;;;;;;;60.60;21.75;;;;;;;;;;4992962;28;20208;-67
2022/11/29 08:36:58;;;;;;;67.72;21.95;;;;;;;;;;4991970;28;20239;-67
2022/11/29 08:39:23;;;;;;;68.25;23.30;;;;;;;;;;4993226;28;20635;-67
2022/11/29 08:41:49;;;;;;;59.25;21.80;;;;;;;;;;4996955;28;20217;-67
2022/11/29 08:44:14;;;;;;;72.93;22.35;;;;;;;;;;5001695;28;20231;-67
2022/11/29 08:49:23;;;;;;;56.30;19.55;;;;;;;;;;4997302;28;20220;-67
2022/11/29 08:51:49;;;;;;;44.80;17.63;;;;;;;;;;4990381;28;20214;-68
2022/11/29 08:54:15;;;;;;;52.67;18.15;;;;;;;;;;4999564;28;20296;-67
2022/11/29 08:56:40;;;;;;;44.55;17.52;;;;;;;;;;4994335;28;20288;-67
2022/11/29 08:59:05;;;;;;;51.75;17.42;;;;;;;;;;5009017;28;20204;-67
2022/11/29 09:01:31;;;;;;;43.35;18.35;;;;;;;;;;5002472;28;20703;-67
2022/11/29 09:04:02;;;;;;;40.97;17.20;;;;;;;;;;4989104;28;20340;-67
2022/11/29 09:06:29;;;;;;;49.10;18.33;;;;;;;;;;4980380;28;20681;-67
2022/11/29 09:08:55;;;;;;;48.03;17.55;;;;;;;;;;4978471;28;20213;-67
2022/11/29 09:11:21;;;;;;;43.47;18.20;;;;;;;;;;4989448;28;20922;-67
2022/11/29 09:13:47;;;;;;;37.78;15.68;;;;;;;;;;4988220;28;20209;-67
2022/11/29 09:16:13;;;;;;;40.35;17.38;;;;;;;;;;4992834;28;20209;-66
2022/11/29 09:18:38;;;;;;;42.55;16.48;;;;;;;;;;4993825;28;20639;-67
2022/11/29 09:21:04;;;;;;;48.53;16.98;;;;;;;;;;4992839;28;20866;-67
2022/11/29 09:23:30;;;;;;;37.47;15.23;;;;;;;;;;5004636;28;20221;-66
2022/11/29 09:25:55;;;;;;;45.20;15.52;;;;;;;;;;5011190;28;20228;-67
2022/11/29 09:28:20;;;;;;;35.72;13.85;;;;;;;;;;5012868;28;20258;-66
2022/11/29 09:30:45;;;;;;;38.22;16.67;;;;;;;;;;5008266;28;20291;-67
2022/11/29 09:33:11;;;;;;;36.45;14.98;;;;;;;;;;4991523;28;20236;-67
2022/11/29 09:35:36;;;;;;;31.05;14.40;;;;;;;;;;4991040;28;20228;-67
2022/11/29 09:38:01;;;;;;;32.42;13.27;;;;;;;;;;4993041;28;20696;-67
2022/11/29 09:40:31;;;;;;;51.40;26.20;;;;;;;;;;4992571;28;20217;-63
2022/11/29 09:42:59;;;;;;;43.28;19.67;;;;;;;;;;4990791;28;20456;-63
2022/11/29 09:45:28;;;;;;;31.15;13.07;;;;;;;;;;4991587;28;20307;-65
2022/11/29 09:48:13;;;;;;;28.77;12.38;;;;;;;;;;4991387;28;20308;-65
2022/11/29 09:50:42;;;;;;;27.40;11.95;;;;;;;;;;4978631;28;20228;-65
2022/11/29 09:53:12;;;;;;;30.95;13.45;;;;;;;;;;4971420;28;20438;-65
2022/11/29 09:55:58;;;;;;;30.92;12.93;;;;;;;;;;4976340;28;20209;-66
2022/11/29 09:58:25;;;;;;;25.95;12.15;;;;;;;;;;4970481;28;20490;-67
2022/11/29 10:00:53;;;;;;;31.10;12.70;;;;;;;;;;4972110;28;20233;-65
2022/11/29 10:03:22;;;;;;;33.30;14.13;;;;;;;;;;4978539;28;20220;-66
2022/11/29 10:05:49;;;;;;;32.22;13.18;;;;;;;;;;4983335;28;20319;-66
2022/11/29 10:08:18;;;;;;;33.65;13.25;;;;;;;;;;4979498;28;20260;-65
2022/11/29 10:10:44;;;;;;;31.50;13.20;;;;;;;;;;4980425;28;20212;-66
2022/11/29 10:13:09;;;;;;;33.47;12.88;;;;;;;;;;4968388;28;20210;-66
2022/11/29 10:15:37;;;;;;;27.98;12.43;;;;;;;;;;4968417;28;20680;-65
2022/11/29 10:18:03;;;;;;;31.50;12.88;;;;;;;;;;4971934;28;20577;-66
2022/11/29 10:20:30;;;;;;;34.25;12.10;;;;;;;;;;4983253;28;20205;-65
2022/11/29 10:22:58;;;;;;;29.80;12.77;;;;;;;;;;4976940;28;20647;-66
2022/11/29 10:25:24;;;;;;;29.30;12.45;;;;;;;;;;4973972;28;20222;-65
2022/11/29 10:27:50;;;;;;;33.38;12.90;;;;;;;;;;4964300;28;20222;-66
2022/11/29 10:30:15;;;;;;;30.08;12.55;;;;;;;;;;4966159;28;20622;-66
2022/11/29 10:32:41;;;;;;;30.77;12.82;;;;;;;;;;4967258;28;20685;-64
2022/11/29 10:35:13;;;;;;;31.35;12.68;;;;;;;;;;4966952;28;20266;-65
2022/11/29 10:37:39;;;;;;;35.55;14.23;;;;;;;;;;4967275;28;20284;-65
2022/11/29 10:40:06;;;;;;;36.08;13.82;;;;;;;;;;4966921;28;20673;-65
2022/11/29 10:42:48;;;;;;;35.78;13.63;;;;;;;;;;4966912;28;20233;-65
2022/11/29 10:45:18;;;;;;;29.27;12.35;;;;;;;;;;4958320;28;20225;-65
2022/11/29 10:47:44;;;;;;;32.08;12.43;;;;;;;;;;4959727;28;20237;-65
2022/11/29 10:50:18;;;;;;;30.75;13.55;;;;;;;;;;4967950;28;20591;-65
2022/11/29 10:52:43;;;;;;;31.98;12.50;;;;;;;;;;4978964;28;20603;-65
2022/11/29 10:55:11;;;;;;;30.38;12.10;;;;;;;;;;4966749;28;20222;-65
2022/11/29 10:57:36;;;;;;;34.83;13.18;;;;;;;;;;4971088;28;20224;-65
2022/11/29 11:00:03;;;;;;;28.45;12.07;;;;;;;;;;4972670;28;20241;-65
2022/11/29 11:02:28;;;;;;;33.22;12.93;;;;;;;;;;4965819;28;20244;-65
2022/11/29 11:04:54;;;;;;;27.10;11.80;;;;;;;;;;4965541;28;20301;-65
2022/11/29 11:07:21;;;;;;;27.50;11.38;;;;;;;;;;4959327;28;20253;-65
2022/11/29 11:09:47;;;;;;;33.70;14.75;;;;;;;;;;4976478;28;20228;-65
2022/11/29 11:12:12;;;;;;;32.85;12.98;;;;;;;;;;4973870;28;20945;-64
2022/11/29 11:14:38;;;;;;;31.15;12.45;;;;;;;;;;4965650;28;20296;-65
2022/11/29 11:17:24;;;;;;;25.63;12.05;;;;;;;;;;4980460;28;20224;-67
2022/11/29 11:19:53;;;;;;;30.50;14.60;;;;;;;;;;4991707;28;20594;-65
2022/11/29 11:22:19;;;;;;;30.52;12.82;;;;;;;;;;4989676;28;20209;-65
2022/11/29 11:24:45;;;;;;;31.88;14.43;;;;;;;;;;4990876;28;20439;-65
2022/11/29 11:27:10;;;;;;;30.20;13.40;;;;;;;;;;4988672;28;20229;-64
2022/11/29 11:29:36;;;;;;;28.08;13.13;;;;;;;;;;4989773;28;20220;-65
2022/11/29 11:32:02;;;;;;;33.78;13.82;;;;;;;;;;4990806;28;20224;-65
2022/11/29 11:34:28;;;;;;;34.22;14.20;;;;;;;;;;4990405;28;20210;-65
2022/11/29 11:37:10;;;;;;;39.85;15.00;;;;;;;;;;4991022;28;20313;-65
2022/11/29 11:39:35;;;;;;;31.25;13.65;;;;;;;;;;4995320;28;20224;-65
2022/11/29 11:44:48;;;;;;;31.13;12.93;;;;;;;;;;4989799;28;20240;-65
2022/11/29 11:47:20;;;;;;;27.35;13.55;;;;;;;;;;4989786;28;20251;-65
2022/11/29 11:49:47;;;;;;;28.77;13.25;;;;;;;;;;4991037;28;20213;-65
2022/11/29 11:52:13;;;;;;;30.90;13.95;;;;;;;;;;4990672;28;20279;-65
2022/11/29 11:54:38;;;;;;;25.50;11.98;;;;;;;;;;4988614;28;20672;-64
2022/11/29 11:57:03;;;;;;;27.80;11.70;;;;;;;;;;4988864;28;20703;-64
2022/11/29 11:59:29;;;;;;;26.25;12.13;;;;;;;;;;4982783;28;20221;-65
2022/11/29 12:01:54;;;;;;;29.75;12.40;;;;;;;;;;4994505;28;20220;-65
2022/11/29 12:04:20;;;;;;;24.23;11.38;;;;;;;;;;5010112;28;20216;-65
2022/11/29 12:06:47;;;;;;;24.88;11.98;;;;;;;;;;4995859;28;20264;-65
2022/11/29 12:09:22;;;;;;;27.25;12.48;;;;;;;;;;4988217;28;20696;-64
2022/11/29 12:12:07;;;;;;;27.95;13.35;;;;;;;;;;5003223;28;20212;-65
2022/11/29 12:14:35;;;;;;;26.98;12.40;;;;;;;;;;4996733;28;20274;-65
2022/11/29 12:17:02;;;;;;;28.30;12.18;;;;;;;;;;4987106;28;20208;-65
2022/11/29 12:19:30;;;;;;;27.73;12.57;;;;;;;;;;5005754;28;20668;-64
2022/11/29 12:21:57;;;;;;;28.30;13.25;;;;;;;;;;5007748;28;20258;-65
2022/11/29 12:24:24;;;;;;;24.67;11.90;;;;;;;;;;5007775;28;20200;-65
2022/11/29 12:26:50;;;;;;;27.27;13.38;;;;;;;;;;4989350;28;20229;-65
2022/11/29 12:29:16;;;;;;;32.35;13.10;;;;;;;;;;4991735;28;20703;-64
2022/11/29 12:31:45;;;;;;;28.08;13.02;;;;;;;;;;4969775;28;20576;-64
2022/11/29 12:34:11;;;;;;;30.67;13.50;;;;;;;;;;4970528;28;20213;-64
2022/11/29 12:36:42;;;;;;;30.67;13.48;;;;;;;;;;4970586;28;20251;-64
2022/11/29 12:39:12;;;;;;;33.00;13.38;;;;;;;;;;4970446;28;20257;-66
2022/11/29 12:41:44;;;;;;;30.42;13.52;;;;;;;;;;4970944;28;20221;-66
2022/11/29 12:44:14;;;;;;;26.75;12.93;;;;;;;;;;4969593;28;20579;-66
2022/11/29 12:46:39;;;;;;;30.33;13.27;;;;;;;;;;4969591;28;20332;-66
2022/11/29 12:49:12;;;;;;;34.05;14.40;;;;;;;;;;4969350;28;20301;-66
2022/11/29 12:51:38;;;;;;;30.75;13.07;;;;;;;;;;4975592;28;20239;-66
2022/11/29 12:54:14;;;;;;;32.60;13.50;;;;;;;;;;5010235;28;20256;-65
2022/11/29 12:56:39;;;;;;;32.50;13.50;;;;;;;;;;5009257;28;20211;-66
2022/11/29 12:59:12;;;;;;;25.75;12.15;;;;;;;;;;4997843;28;20307;-66
2022/11/29 13:01:37;;;;;;;30.92;13.98;;;;;;;;;;5013186;28;20224;-66
2022/11/29 13:04:09;;;;;;;27.83;13.38;;;;;;;;;;5012636;28;20590;-65
2022/11/29 13:06:38;;;;;;;30.77;13.18;;;;;;;;;;5013592;28;20290;-66
2022/11/29 13:09:11;;;;;;;34.33;13.88;;;;;;;;;;5013051;28;20216;-65
2022/11/29 13:11:38;;;;;;;30.45;13.38;;;;;;;;;;5012582;28;20205;-66
2022/11/29 13:14:06;;;;;;;34.13;13.32;;;;;;;;;;5003742;28;20706;-65
2022/11/29 13:16:31;;;;;;;34.08;12.38;;;;;;;;;;4997130;28;20677;-66
2022/11/29 13:18:59;;;;;;;30.55;12.10;;;;;;;;;;4993232;28;20244;-66
2022/11/29 13:21:31;;;;;;;26.63;11.55;;;;;;;;;;4991794;28;20616;-66
2022/11/29 13:24:03;;;;;;;31.05;11.40;;;;;;;;;;4992315;28;20209;-66
2022/11/29 13:26:28;;;;;;;28.38;11.23;;;;;;;;;;4980493;28;20681;-66
2022/11/29 13:28:54;;;;;;;30.52;11.55;;;;;;;;;;4985282;28;20217;-66
2022/11/29 13:31:21;;;;;;;30.05;11.60;;;;;;;;;;4999903;28;20776;-66
2022/11/29 13:33:52;;;;;;;29.42;11.80;;;;;;;;;;4997651;28;20217;-65
2022/11/29 13:36:21;;;;;;;32.42;11.57;;;;;;;;;;4992298;28;20213;-65
2022/11/29 13:38:55;;;;;;;29.65;11.20;;;;;;;;;;4993303;28;20213;-65
2022/11/29 13:41:26;;;;;;;27.52;12.07;;;;;;;;;;4991630;28;20246;-65
2022/11/29 13:43:54;;;;;;;29.30;12.10;;;;;;;;;;4993384;28;20583;-65
2022/11/29 13:46:34;;;;;;;28.23;11.57;;;;;;;;;;4990489;28;20229;-65
2022/11/29 13:49:00;;;;;;;29.00;10.93;;;;;;;;;;4993341;28;20307;-65
2022/11/29 13:51:33;;;;;;;31.13;10.45;;;;;;;;;;4992693;28;20292;-65
2022/11/29 13:53:59;;;;;;;32.28;11.20;;;;;;;;;;4992108;28;20271;-65
2022/11/29 13:56:31;;;;;;;31.88;11.55;;;;;;;;;;4992273;28;20275;-65
2022/11/29 13:58:57;;;;;;;27.58;11.88;;;;;;;;;;4997053;28;20205;-65
2022/11/29 14:01:25;;;;;;;29.25;13.20;;;;;;;;;;4991004;28;20225;-65
2022/11/29 14:03:59;;;;;;;43.80;20.30;;;;;;;;;;4991799;28;20684;-65
2022/11/29 14:06:32;;;;;;;35.15;15.85;;;;;;;;;;4991154;28;20221;-65
2022/11/29 14:09:17;;;;;;;26.23;11.93;;;;;;;;;;4990799;28;20240;-65
2022/11/29 14:11:43;;;;;;;27.60;10.90;;;;;;;;;;4992470;28;20303;-65
2022/11/29 14:14:15;;;;;;;28.15;10.75;;;;;;;;;;4990505;28;20295;-65
2022/11/29 14:16:41;;;;;;;23.73;10.13;;;;;;;;;;4992869;28;20209;-65
2022/11/29 14:19:07;;;;;;;27.38;10.77;;;;;;;;;;4992314;28;20275;-65
2022/11/29 14:21:53;;;;;;;25.27;11.00;;;;;;;;;;4991999;28;20210;-65
2022/11/29 14:24:37;;;;;;;31.33;12.15;;;;;;;;;;4991788;28;20209;-65
2022/11/29 14:27:05;;;;;;;27.65;11.52;;;;;;;;;;4992115;28;20236;-65
2022/11/29 14:29:46;;;;;;;25.23;11.75;;;;;;;;;;4998344;28;20225;-65